AAL883 KATL-KBOS
Flight info
| Callsign | AAL883 |
|---|---|
| Flight time | N/A |
| Altitude | 35000 |
| Route | PLMMR3 BURGG Q22 RBV Q419 JFK ROBUC3 |
| Aircraft | A321/M-SDE3FGHIRWY/LB1 |
Departure
| Time | 2026-05-07 22:54 |
|---|---|
| Airport | Hartsfield Jackson Atlanta International Airport (KATL) |
Arrival
| Time | N/A |
|---|---|
| Airport | Boston Logan International Airport (KBOS) |
| Time | Latitude | Longitude | Altitude | Speed | Heading |
|---|---|---|---|---|---|
| 2026-05-07 22:21 | 33.63896 | -84.43972 | 1007 ft | 0 kts | 90° |
| 2026-05-07 22:43 | 33.63896 | -84.43994 | 1006 ft | 4 kts | 91° |
| 2026-05-07 22:43 | 33.63900 | -84.44025 | 1006 ft | 4 kts | 116° |
| 2026-05-07 22:43 | 33.63916 | -84.44047 | 1006 ft | 4 kts | 162° |
| 2026-05-07 22:43 | 33.63926 | -84.44050 | 1006 ft | 0 kts | 180° |
| 2026-05-07 22:47 | 33.63911 | -84.44050 | 1006 ft | 7 kts | 180° |
| 2026-05-07 22:47 | 33.63835 | -84.44050 | 1006 ft | 12 kts | 180° |
| 2026-05-07 22:47 | 33.63758 | -84.44050 | 1006 ft | 10 kts | 180° |
| 2026-05-07 22:47 | 33.63695 | -84.44041 | 1006 ft | 9 kts | 155° |
| 2026-05-07 22:48 | 33.63664 | -84.43973 | 1006 ft | 11 kts | 94° |
| 2026-05-07 22:48 | 33.63664 | -84.43863 | 1006 ft | 16 kts | 90° |
| 2026-05-07 22:48 | 33.63664 | -84.43703 | 1006 ft | 22 kts | 90° |
| 2026-05-07 22:48 | 33.63664 | -84.43491 | 1006 ft | 29 kts | 89° |
| 2026-05-07 22:49 | 33.63664 | -84.43242 | 1006 ft | 29 kts | 90° |
| 2026-05-07 22:49 | 33.63664 | -84.43025 | 1006 ft | 22 kts | 90° |
| 2026-05-07 22:49 | 33.63664 | -84.42846 | 1006 ft | 21 kts | 90° |
| 2026-05-07 22:49 | 33.63655 | -84.42683 | 1007 ft | 19 kts | 91° |
| 2026-05-07 22:50 | 33.63655 | -84.42535 | 1007 ft | 17 kts | 90° |
| 2026-05-07 22:50 | 33.63655 | -84.42401 | 1007 ft | 15 kts | 90° |
| 2026-05-07 22:50 | 33.63656 | -84.42278 | 1007 ft | 15 kts | 90° |
| 2026-05-07 22:50 | 33.63656 | -84.42143 | 1007 ft | 17 kts | 90° |
| 2026-05-07 22:51 | 33.63655 | -84.41991 | 1006 ft | 20 kts | 90° |
| 2026-05-07 22:51 | 33.63655 | -84.41818 | 1006 ft | 22 kts | 90° |
| 2026-05-07 22:51 | 33.63655 | -84.41624 | 1006 ft | 24 kts | 90° |
| 2026-05-07 22:51 | 33.63655 | -84.41424 | 1006 ft | 23 kts | 90° |
| 2026-05-07 22:52 | 33.63655 | -84.41236 | 1006 ft | 22 kts | 90° |
| 2026-05-07 22:52 | 33.63655 | -84.41063 | 1006 ft | 20 kts | 90° |
| 2026-05-07 22:52 | 33.63646 | -84.40929 | 1006 ft | 13 kts | 120° |
| 2026-05-07 22:52 | 33.63573 | -84.40908 | 1006 ft | 10 kts | 180° |
| 2026-05-07 22:53 | 33.63511 | -84.40909 | 1007 ft | 8 kts | 180° |
| 2026-05-07 22:53 | 33.63474 | -84.40926 | 1007 ft | 5 kts | 237° |
| 2026-05-07 22:53 | 33.63471 | -84.40962 | 1007 ft | 6 kts | 269° |
| 2026-05-07 22:53 | 33.63471 | -84.41128 | 1005 ft | 49 kts | 270° |
| 2026-05-07 22:54 | 33.63471 | -84.41804 | 1007 ft | 110 kts | 270° |
| 2026-05-07 22:54 | 33.63471 | -84.42928 | 1007 ft | 157 kts | 270° |
| 2026-05-07 22:54 | 33.63475 | -84.44330 | 1379 ft | 169 kts | 275° |
| 2026-05-07 22:54 | 33.63462 | -84.45712 | 2052 ft | 167 kts | 271° |
| 2026-05-07 22:55 | 33.63426 | -84.47106 | 2687 ft | 169 kts | 267° |
| 2026-05-07 22:55 | 33.63015 | -84.48531 | 2942 ft | 191 kts | 247° |
| 2026-05-07 22:55 | 33.62382 | -84.50013 | 3113 ft | 208 kts | 246° |
| 2026-05-07 22:55 | 33.61716 | -84.51643 | 3267 ft | 230 kts | 246° |
| 2026-05-07 22:56 | 33.60967 | -84.53442 | 3565 ft | 249 kts | 246° |
| 2026-05-07 22:56 | 33.60169 | -84.55323 | 4202 ft | 255 kts | 245° |
| 2026-05-07 22:56 | 33.59293 | -84.57189 | 4918 ft | 260 kts | 234° |
| 2026-05-07 22:56 | 33.57794 | -84.58416 | 5610 ft | 271 kts | 200° |
| 2026-05-07 22:57 | 33.55899 | -84.58726 | 6334 ft | 277 kts | 188° |
| 2026-05-07 22:57 | 33.53954 | -84.58750 | 6974 ft | 281 kts | 185° |
| 2026-05-07 22:57 | 33.51989 | -84.58680 | 7625 ft | 284 kts | 185° |
| 2026-05-07 22:57 | 33.49996 | -84.58592 | 8213 ft | 289 kts | 183° |
| 2026-05-07 22:58 | 33.48011 | -84.57964 | 8836 ft | 306 kts | 155° |
| 2026-05-07 22:58 | 33.46416 | -84.56254 | 9359 ft | 324 kts | 126° |
| 2026-05-07 22:58 | 33.45634 | -84.53694 | 9863 ft | 334 kts | 96° |
| 2026-05-07 22:58 | 33.45483 | -84.50872 | 10120 ft | 349 kts | 90° |
| 2026-05-07 22:59 | 33.45467 | -84.47886 | 10243 ft | 368 kts | 88° |
| 2026-05-07 22:59 | 33.45511 | -84.44739 | 10366 ft | 386 kts | 88° |
| 2026-05-07 22:59 | 33.45565 | -84.41477 | 10682 ft | 396 kts | 88° |
| 2026-05-07 22:59 | 33.45835 | -84.38171 | 11099 ft | 400 kts | 76° |
| 2026-05-07 23:00 | 33.46565 | -84.34943 | 11536 ft | 403 kts | 65° |
| 2026-05-07 23:00 | 33.47734 | -84.31894 | 11995 ft | 403 kts | 53° |
| 2026-05-07 23:00 | 33.49320 | -84.29154 | 12444 ft | 399 kts | 41° |
| 2026-05-07 23:00 | 33.51227 | -84.26751 | 12900 ft | 399 kts | 36° |
| 2026-05-07 23:01 | 33.53192 | -84.24374 | 13377 ft | 403 kts | 36° |
| 2026-05-07 23:01 | 33.55174 | -84.21973 | 13846 ft | 408 kts | 36° |
| 2026-05-07 23:01 | 33.57175 | -84.19539 | 14308 ft | 411 kts | 36° |
| 2026-05-07 23:01 | 33.59187 | -84.17083 | 14723 ft | 415 kts | 36° |
| 2026-05-07 23:02 | 33.61221 | -84.14597 | 15105 ft | 419 kts | 36° |
| 2026-05-07 23:02 | 33.63273 | -84.12089 | 15492 ft | 424 kts | 36° |
| 2026-05-07 23:02 | 33.65350 | -84.09546 | 15878 ft | 428 kts | 36° |
| 2026-05-07 23:02 | 33.67448 | -84.06975 | 16248 ft | 433 kts | 37° |
| 2026-05-07 23:03 | 33.69562 | -84.04383 | 16619 ft | 437 kts | 37° |
| 2026-05-07 23:03 | 33.70978 | -84.02649 | 16874 ft | 439 kts | 37° |
| 2026-05-07 23:03 | 33.73835 | -83.99149 | 17344 ft | 445 kts | 37° |
| 2026-05-07 23:03 | 33.76010 | -83.96478 | 17688 ft | 449 kts | 37° |
| 2026-05-07 23:04 | 33.77487 | -83.94661 | 17934 ft | 452 kts | 37° |
| 2026-05-07 23:04 | 33.79692 | -83.91950 | 18254 ft | 456 kts | 37° |
| 2026-05-07 23:04 | 33.81920 | -83.89208 | 18585 ft | 459 kts | 37° |
| 2026-05-07 23:04 | 33.84155 | -83.86454 | 18903 ft | 461 kts | 37° |
| 2026-05-07 23:05 | 33.86399 | -83.83686 | 19235 ft | 462 kts | 37° |
| 2026-05-07 23:05 | 33.88649 | -83.80909 | 19545 ft | 465 kts | 37° |
| 2026-05-07 23:05 | 33.90908 | -83.78122 | 19822 ft | 467 kts | 37° |
| 2026-05-07 23:05 | 33.93184 | -83.75314 | 20100 ft | 469 kts | 37° |
| 2026-05-07 23:06 | 33.95426 | -83.72432 | 20370 ft | 476 kts | 43° |
| 2026-05-07 23:06 | 33.97443 | -83.69228 | 20649 ft | 482 kts | 46° |
| 2026-05-07 23:06 | 33.99434 | -83.65975 | 20934 ft | 483 kts | 46° |
| 2026-05-07 23:06 | 34.01412 | -83.62746 | 21219 ft | 485 kts | 46° |
| 2026-05-07 23:07 | 34.03423 | -83.59467 | 21499 ft | 487 kts | 46° |
| 2026-05-07 23:07 | 34.05437 | -83.56178 | 21803 ft | 489 kts | 46° |